createdAt,value
2022-09-29T00:03:01.746Z,86.10
2022-09-29T00:06:17.325Z,85.10
2022-09-29T00:09:26.106Z,84.40
2022-09-29T00:12:34.310Z,84.68
2022-09-29T00:15:42.922Z,84.12
2022-09-29T00:18:51.581Z,84.45
2022-09-29T00:22:01.884Z,84.00
2022-09-29T00:25:10.389Z,83.84
2022-09-29T00:28:18.829Z,83.75
2022-09-29T00:31:30.607Z,84.29
2022-09-29T00:34:38.884Z,84.30
2022-09-29T00:37:48.986Z,84.23
2022-09-29T00:40:58.175Z,84.35
2022-09-29T00:44:28.424Z,83.82
2022-09-29T00:47:39.441Z,84.48
2022-09-29T00:50:53.225Z,84.38
2022-09-29T00:54:04.411Z,83.86
2022-09-29T00:57:17.745Z,84.20
2022-09-29T01:00:26.576Z,84.03
2022-09-29T01:03:39.449Z,83.76
2022-09-29T01:06:52.590Z,83.83
2022-09-29T01:10:03.376Z,84.32
2022-09-29T01:13:12.512Z,84.46
2022-09-29T01:16:21.037Z,84.75
2022-09-29T01:19:45.719Z,84.89
2022-09-29T01:23:40.552Z,85.42
2022-09-29T01:27:16.058Z,84.85
2022-09-29T01:30:38.689Z,84.97
2022-09-29T01:34:01.938Z,84.88
2022-09-29T01:37:22.343Z,85.20
2022-09-29T01:40:43.497Z,84.94
2022-09-29T01:44:03.146Z,84.30
2022-09-29T01:47:19.529Z,84.74
2022-09-29T01:50:34.270Z,84.81
2022-09-29T01:53:50.378Z,84.65
2022-09-29T02:02:20.147Z,84.67
2022-09-29T02:05:39.297Z,84.86
2022-09-29T02:08:54.248Z,84.87
2022-09-29T02:12:05.360Z,85.16
2022-09-29T02:15:23.928Z,85.31
2022-09-29T02:18:46.075Z,85.51
2022-09-29T02:21:55.500Z,84.87
2022-09-29T02:25:06.366Z,84.66
2022-09-29T02:28:15.258Z,84.09
2022-09-29T02:31:24.312Z,84.63
2022-09-29T02:34:42.301Z,84.79
2022-09-29T02:38:05.478Z,84.27
2022-09-29T02:41:36.653Z,84.14
2022-09-29T02:45:16.729Z,83.98
2022-09-29T02:48:55.348Z,84.35
2022-09-29T02:52:22.077Z,83.94
2022-09-29T02:55:42.888Z,83.31
2022-09-29T02:59:00.958Z,83.57
2022-09-29T03:02:09.363Z,84.24
2022-09-29T03:05:21.785Z,83.92
2022-09-29T03:08:32.356Z,84.26
2022-09-29T03:11:40.648Z,84.20
2022-09-29T03:14:48.853Z,84.11
2022-09-29T03:17:58.246Z,83.55
2022-09-29T03:21:06.516Z,84.21
2022-09-29T03:24:16.118Z,83.61
2022-09-29T03:27:24.596Z,83.11
2022-09-29T03:30:33.457Z,84.09
2022-09-29T03:33:41.824Z,84.38
2022-09-29T03:36:50.087Z,83.18
2022-09-29T03:39:59.777Z,84.00
2022-09-29T03:43:08.051Z,84.38
2022-09-29T03:46:16.534Z,83.89
2022-09-29T03:49:24.757Z,83.81
2022-09-29T03:52:32.946Z,84.43
2022-09-29T03:55:46.763Z,84.10
2022-09-29T03:58:55.027Z,83.93
2022-09-29T04:02:03.316Z,83.24
2022-09-29T04:05:11.609Z,84.09
2022-09-29T04:08:19.870Z,84.15
2022-09-29T04:11:29.819Z,83.81
2022-09-29T04:14:38.167Z,83.80
2022-09-29T04:17:46.426Z,83.73
2022-09-29T04:20:55.231Z,83.52
2022-09-29T04:24:03.719Z,83.42
2022-09-29T04:27:13.401Z,84.18
2022-09-29T04:30:21.726Z,83.64
2022-09-29T04:33:31.342Z,84.28
2022-09-29T04:36:39.702Z,83.86
2022-09-29T04:39:48.117Z,84.54
2022-09-29T04:42:57.785Z,83.83
2022-09-29T04:46:15.136Z,83.87
2022-09-29T04:49:24.028Z,84.23
2022-09-29T04:52:32.326Z,84.91
2022-09-29T04:55:41.690Z,84.63
2022-09-29T04:58:51.321Z,84.66
2022-09-29T05:02:00.187Z,84.93
2022-09-29T05:05:12.301Z,85.24
2022-09-29T05:08:20.472Z,84.51
2022-09-29T05:11:28.668Z,84.34
2022-09-29T05:14:38.266Z,84.23
2022-09-29T05:17:46.807Z,85.25
2022-09-29T05:21:16.132Z,84.62
2022-09-29T05:24:23.637Z,84.69
2022-09-29T05:27:32.022Z,84.83
2022-09-29T05:30:42.196Z,84.57
2022-09-29T05:33:50.591Z,84.73
2022-09-29T05:37:01.033Z,84.81
2022-09-29T05:40:16.830Z,84.00
2022-09-29T05:43:26.556Z,83.25
2022-09-29T05:46:36.850Z,83.70
2022-09-29T05:49:45.111Z,83.82
2022-09-29T05:52:54.501Z,83.11
2022-09-29T05:56:07.739Z,82.72
2022-09-29T05:59:16.243Z,83.26
2022-09-29T06:02:25.971Z,82.79
2022-09-29T06:05:35.836Z,83.26
2022-09-29T06:08:45.849Z,82.65
2022-09-29T06:11:54.172Z,82.84
2022-09-29T06:15:02.384Z,82.15
2022-09-29T06:18:12.012Z,80.80
2022-09-29T06:21:23.806Z,80.91
2022-09-29T06:24:31.952Z,80.86
2022-09-29T06:27:40.257Z,80.05
2022-09-29T06:30:48.430Z,79.85
2022-09-29T06:34:00.507Z,79.75
2022-09-29T06:37:33.703Z,78.65
2022-09-29T06:40:41.984Z,77.12
2022-09-29T06:43:50.273Z,76.56
2022-09-29T06:47:00.302Z,75.67
2022-09-29T06:50:14.999Z,74.29
2022-09-29T06:53:36.655Z,73.51
2022-09-29T06:56:49.451Z,74.19
2022-09-29T06:59:57.894Z,73.48
2022-09-29T07:03:06.325Z,72.01
2022-09-29T07:06:19.736Z,68.65
2022-09-29T07:09:28.667Z,69.61
2022-09-29T07:12:37.274Z,69.79
2022-09-29T07:15:48.166Z,68.28
2022-09-29T07:18:56.545Z,69.10
2022-09-29T07:22:06.973Z,68.55
2022-09-29T07:25:23.220Z,69.92
2022-09-29T07:28:42.540Z,70.28
2022-09-29T07:31:53.067Z,70.54
2022-09-29T07:35:01.673Z,72.00
2022-09-29T07:38:12.002Z,71.95
2022-09-29T07:41:23.726Z,70.83
2022-09-29T07:44:32.726Z,70.71
2022-09-29T07:47:41.459Z,70.28
2022-09-29T07:50:49.774Z,69.85
2022-09-29T07:54:03.975Z,70.68
2022-09-29T07:57:12.560Z,72.76
2022-09-29T08:00:25.374Z,72.80
2022-09-29T08:03:35.369Z,71.38
2022-09-29T08:06:43.694Z,71.87
2022-09-29T08:09:53.535Z,70.67
2022-09-29T08:13:01.786Z,69.89
2022-09-29T08:16:14.188Z,71.68
2022-09-29T08:19:22.547Z,71.09
2022-09-29T08:22:30.869Z,70.82
2022-09-29T08:25:42.846Z,70.38
2022-09-29T08:29:06.078Z,69.33
2022-09-29T08:32:16.951Z,69.77
2022-09-29T08:35:25.400Z,69.54
2022-09-29T08:38:35.062Z,69.99
2022-09-29T08:42:00.419Z,69.73
2022-09-29T08:45:16.682Z,69.84
2022-09-29T08:48:30.415Z,69.97
2022-09-29T08:51:46.561Z,71.10
2022-09-29T08:55:03.950Z,70.53
2022-09-29T08:58:18.355Z,68.81
2022-09-29T09:01:43.151Z,67.27
2022-09-29T09:05:21.350Z,68.48
2022-09-29T09:09:05.335Z,68.99
2022-09-29T09:12:33.436Z,70.08
2022-09-29T09:16:21.262Z,68.86
2022-09-29T09:19:57.667Z,67.94
2022-09-29T09:23:20.527Z,68.42
2022-09-29T09:26:42.933Z,66.17
2022-09-29T09:30:04.768Z,67.28
2022-09-29T09:33:31.679Z,68.92
2022-09-29T09:36:56.984Z,68.38
2022-09-29T09:40:21.210Z,66.18
2022-09-29T09:43:38.221Z,63.06
2022-09-29T09:46:54.152Z,67.14
2022-09-29T09:50:23.920Z,67.45
2022-09-29T09:53:42.795Z,69.40
2022-09-29T09:57:33.649Z,68.67
2022-09-29T10:00:48.391Z,68.31
2022-09-29T10:03:59.910Z,68.15
2022-09-29T10:07:11.067Z,69.40
2022-09-29T10:10:22.943Z,67.76
2022-09-29T10:13:33.573Z,67.68
2022-09-29T10:16:49.623Z,66.93
2022-09-29T10:20:01.558Z,66.85
2022-09-29T10:23:32.417Z,66.78
2022-09-29T10:26:45.629Z,66.34
2022-09-29T10:29:56.983Z,66.75
2022-09-29T10:33:10.492Z,67.03
2022-09-29T10:36:21.913Z,68.67
2022-09-29T10:39:43.144Z,69.37
2022-09-29T10:42:53.471Z,68.93
2022-09-29T10:46:01.933Z,67.96
2022-09-29T10:49:15.362Z,68.73
2022-09-29T10:52:27.571Z,69.77
2022-09-29T10:55:51.266Z,67.53
2022-09-29T10:59:05.783Z,65.96
2022-09-29T11:02:25.381Z,64.06
2022-09-29T11:05:34.356Z,65.19
2022-09-29T11:09:01.948Z,65.30
2022-09-29T11:12:34.961Z,65.63
2022-09-29T11:15:43.678Z,66.24
2022-09-29T11:18:57.706Z,66.34
2022-09-29T11:22:42.398Z,67.47
2022-09-29T11:26:10.370Z,68.41
2022-09-29T11:29:41.283Z,67.48
2022-09-29T11:33:20.399Z,67.73
2022-09-29T11:36:39.369Z,66.62
2022-09-29T11:39:59.164Z,66.67
2022-09-29T11:43:27.831Z,67.73
2022-09-29T11:46:58.433Z,67.82
2022-09-29T11:50:24.925Z,66.15
2022-09-29T11:53:57.732Z,66.18
2022-09-29T11:57:19.798Z,68.31
2022-09-29T12:00:52.536Z,67.66
2022-09-29T12:04:24.620Z,69.79
2022-09-29T12:07:45.659Z,71.01
2022-09-29T12:11:37.218Z,73.12
2022-09-29T12:14:47.772Z,72.45
2022-09-29T12:18:02.327Z,73.19
2022-09-29T12:21:17.826Z,72.19
2022-09-29T12:24:36.518Z,73.61
2022-09-29T12:27:49.851Z,71.96
2022-09-29T12:31:07.121Z,72.20
2022-09-29T12:34:24.054Z,71.95
2022-09-29T12:37:42.792Z,74.66
2022-09-29T12:41:08.580Z,74.75
2022-09-29T12:44:28.989Z,75.89
2022-09-29T12:47:53.912Z,76.05
2022-09-29T12:51:13.623Z,74.60
2022-09-29T12:54:29.920Z,74.82
2022-09-29T12:57:43.401Z,75.34
2022-09-29T13:01:01.096Z,75.14
2022-09-29T13:04:56.285Z,75.41
2022-09-29T13:08:44.388Z,73.43
2022-09-29T13:12:16.192Z,74.60
2022-09-29T13:15:53.609Z,74.69
2022-09-29T13:19:57.818Z,75.49
2022-09-29T13:23:26.617Z,75.12
2022-09-29T13:27:28.105Z,74.99
2022-09-29T13:30:39.836Z,75.08
2022-09-29T13:33:51.373Z,75.70
2022-09-29T13:37:13.569Z,76.32
2022-09-29T13:40:26.505Z,76.62
2022-09-29T13:44:20.573Z,77.38
2022-09-29T13:47:34.989Z,78.81
2022-09-29T13:50:47.469Z,78.80
2022-09-29T13:54:25.273Z,78.82
2022-09-29T13:57:33.485Z,78.88
2022-09-29T14:00:44.990Z,79.05
2022-09-29T14:03:58.897Z,79.37
2022-09-29T14:07:09.069Z,79.53
2022-09-29T14:10:27.429Z,79.06
2022-09-29T14:13:49.182Z,79.49
2022-09-29T14:17:04.556Z,79.49
2022-09-29T14:20:21.830Z,80.11
2022-09-29T14:23:51.580Z,79.32
2022-09-29T14:27:28.138Z,79.88
2022-09-29T14:30:47.065Z,80.40
2022-09-29T14:33:57.134Z,80.26
2022-09-29T14:37:08.478Z,81.05
2022-09-29T14:40:31.659Z,80.16
2022-09-29T14:43:44.741Z,81.03
2022-09-29T14:47:46.211Z,81.67
2022-09-29T14:51:34.336Z,80.75
2022-09-29T14:55:01.423Z,81.47
2022-09-29T14:58:32.413Z,80.80
2022-09-29T15:02:07.770Z,79.34
2022-09-29T15:05:31.168Z,79.19
2022-09-29T15:08:40.209Z,78.96
2022-09-29T15:11:54.368Z,78.60
2022-09-29T15:15:02.924Z,78.77
2022-09-29T15:18:34.029Z,78.45
2022-09-29T15:21:56.536Z,78.52
2022-09-29T15:25:24.072Z,78.74
2022-09-29T15:28:38.774Z,78.14
2022-09-29T15:31:50.061Z,77.88
2022-09-29T15:35:06.115Z,78.32
2022-09-29T15:38:38.549Z,79.10
2022-09-29T15:41:46.990Z,79.04
2022-09-29T15:45:03.223Z,80.02
2022-09-29T15:48:16.375Z,80.49
2022-09-29T15:51:24.847Z,80.68
2022-09-29T15:57:53.413Z,80.31
2022-09-29T16:01:06.403Z,80.62
2022-09-29T16:04:15.020Z,80.60
2022-09-29T16:07:30.994Z,80.46
2022-09-29T16:10:49.549Z,80.54
2022-09-29T16:14:03.877Z,80.26
2022-09-29T16:17:14.388Z,81.13
2022-09-29T16:20:30.295Z,80.33
2022-09-29T16:23:44.580Z,80.28
2022-09-29T16:26:55.973Z,81.14
2022-09-29T16:30:20.050Z,81.94
2022-09-29T16:33:30.145Z,82.07
2022-09-29T16:36:38.377Z,82.06
2022-09-29T16:39:49.883Z,82.03
2022-09-29T16:42:58.997Z,82.25
2022-09-29T16:46:10.760Z,82.00
2022-09-29T16:49:25.160Z,82.08
2022-09-29T16:52:43.981Z,82.72
2022-09-29T16:56:01.414Z,82.79
2022-09-29T16:59:15.066Z,82.71
2022-09-29T17:02:24.905Z,83.06
2022-09-29T17:05:43.603Z,82.71
2022-09-29T17:08:52.597Z,83.25
2022-09-29T17:12:01.359Z,83.90
2022-09-29T17:15:14.784Z,84.01
2022-09-29T17:18:25.210Z,84.19
2022-09-29T17:21:36.317Z,84.59
2022-09-29T17:24:45.090Z,85.36
2022-09-29T17:28:11.034Z,85.49
2022-09-29T17:31:19.525Z,84.54
2022-09-29T17:34:29.602Z,84.51
2022-09-29T17:37:39.360Z,84.62
2022-09-29T17:40:54.466Z,84.68
2022-09-29T17:44:09.804Z,83.70
2022-09-29T17:47:36.986Z,84.21
2022-09-29T17:50:48.624Z,84.27
2022-09-29T17:53:59.253Z,84.72
2022-09-29T17:57:08.654Z,85.21
2022-09-29T18:00:21.717Z,84.82
2022-09-29T18:03:30.320Z,84.16
2022-09-29T18:06:38.951Z,84.42
2022-09-29T18:09:48.517Z,85.15
2022-09-29T18:12:58.152Z,85.28
2022-09-29T18:16:07.023Z,85.11
2022-09-29T18:19:18.099Z,84.79
2022-09-29T18:22:26.288Z,84.80
2022-09-29T18:25:36.362Z,84.62
2022-09-29T18:28:48.906Z,85.33
2022-09-29T18:31:57.123Z,84.82
2022-09-29T18:35:14.043Z,84.72
2022-09-29T18:38:22.577Z,84.55
2022-09-29T18:41:32.226Z,85.28
2022-09-29T18:44:40.545Z,85.15
2022-09-29T18:47:48.737Z,85.62
2022-09-29T18:50:57.017Z,85.51
2022-09-29T18:54:05.624Z,85.53
2022-09-29T18:57:15.530Z,85.01
2022-09-29T19:00:31.107Z,85.37
2022-09-29T19:03:40.528Z,85.66
2022-09-29T19:06:49.495Z,85.28
2022-09-29T19:09:57.694Z,84.81
2022-09-29T19:13:12.659Z,85.61
2022-09-29T19:16:21.532Z,85.35
2022-09-29T19:19:29.865Z,85.42
2022-09-29T19:22:42.320Z,85.33
2022-09-29T19:25:52.183Z,85.51
2022-09-29T19:29:01.785Z,85.58
2022-09-29T19:32:12.056Z,85.73
2022-09-29T19:35:23.885Z,86.01
2022-09-29T19:38:34.522Z,85.68
2022-09-29T19:41:43.706Z,85.63
2022-09-29T19:44:53.707Z,86.30
2022-09-29T19:48:02.045Z,86.65
2022-09-29T19:51:32.191Z,86.31
2022-09-29T19:54:41.807Z,86.44
2022-09-29T19:57:50.846Z,86.06
2022-09-29T20:01:00.462Z,85.96
2022-09-29T20:04:09.295Z,85.98
2022-09-29T20:07:17.833Z,86.25
2022-09-29T20:10:27.598Z,86.21
2022-09-29T20:13:36.326Z,85.11
2022-09-29T20:16:47.800Z,85.57
2022-09-29T20:19:56.129Z,85.64
2022-09-29T20:23:04.604Z,86.13
2022-09-29T20:26:12.827Z,85.78
2022-09-29T20:29:21.613Z,85.39
2022-09-29T20:32:31.409Z,85.20
2022-09-29T20:35:40.395Z,85.52
2022-09-29T20:38:48.628Z,85.45
2022-09-29T20:41:58.271Z,84.96
2022-09-29T20:45:07.880Z,84.47
2022-09-29T20:48:17.833Z,85.09
2022-09-29T20:51:29.196Z,85.15
2022-09-29T20:54:37.358Z,85.28
2022-09-29T20:57:46.533Z,84.94
2022-09-29T21:00:54.827Z,85.68
2022-09-29T21:04:10.699Z,84.81
2022-09-29T21:07:38.927Z,85.51
2022-09-29T21:10:47.119Z,85.62
2022-09-29T21:13:57.876Z,85.34
2022-09-29T21:17:06.381Z,85.07
2022-09-29T21:20:17.239Z,84.82
2022-09-29T21:23:26.579Z,84.92
2022-09-29T21:26:35.114Z,84.82
2022-09-29T21:29:44.853Z,85.16
2022-09-29T21:32:53.121Z,85.40
2022-09-29T21:36:05.808Z,84.94
2022-09-29T21:39:14.445Z,84.81
2022-09-29T21:42:22.808Z,85.52
2022-09-29T21:45:32.126Z,85.62
2022-09-29T21:48:42.102Z,85.03
2022-09-29T21:51:52.726Z,85.29
2022-09-29T21:58:42.849Z,84.85
2022-09-29T22:01:52.303Z,84.70
2022-09-29T22:05:01.172Z,84.40
2022-09-29T22:08:12.335Z,83.89
2022-09-29T22:11:23.683Z,84.98
2022-09-29T22:14:31.954Z,85.26
2022-09-29T22:17:41.076Z,85.78
2022-09-29T22:20:49.703Z,85.89
2022-09-29T22:24:02.044Z,86.05
2022-09-29T22:27:10.217Z,86.33
2022-09-29T22:30:19.009Z,85.91
2022-09-29T22:33:27.558Z,85.86
2022-09-29T22:36:37.349Z,84.95
2022-09-29T22:39:46.915Z,85.13
2022-09-29T22:42:55.774Z,85.25
2022-09-29T22:46:04.904Z,85.89
2022-09-29T22:49:13.151Z,86.07
2022-09-29T22:52:21.669Z,85.49
2022-09-29T22:55:32.949Z,85.39
2022-09-29T22:58:43.082Z,85.58
2022-09-29T23:01:51.888Z,86.23
2022-09-29T23:05:00.699Z,86.59
2022-09-29T23:08:09.374Z,86.80
2022-09-29T23:11:21.220Z,86.42
2022-09-29T23:14:29.441Z,86.28
2022-09-29T23:17:38.658Z,85.08
2022-09-29T23:20:48.475Z,85.63
2022-09-29T23:23:59.501Z,85.85
2022-09-29T23:27:09.317Z,86.27
2022-09-29T23:30:17.891Z,86.25
2022-09-29T23:33:26.466Z,85.99
2022-09-29T23:36:34.619Z,85.59
2022-09-29T23:39:41.783Z,85.89
2022-09-29T23:42:52.097Z,86.42
2022-09-29T23:46:00.258Z,86.59
2022-09-29T23:49:11.451Z,86.50
2022-09-29T23:52:20.138Z,86.10
2022-09-29T23:55:28.789Z,85.61
2022-09-29T23:58:40.213Z,86.39
